Salina, KS

6:43 PM CDT on September 23, 2017 (GMT -0500)
Salina Municipal | | Change Station

Elev 1273 ft 38.79 °N, 97.65 °W | Updated 50 minutes ago

Partly Cloudy
Partly Cloudy
92 °F
Feels Like 91 °F
N
22
Wind Variable Wind from SSE
Gusts 32 mph

Today
High -- | Low -- °F
--% Chance of Precip.
Yesterday
High -- | Low -- °F
Precip. -- in
Pressure 29.83 in
Visibility 10.0 miles
Clouds Scattered Clouds 7000 ft
Heat Index 91 °F
Dew Point 59 °F
Humidity 33%
Rainfall 0.00 in
Snow Depth Not available.
7:19 AM 7:25 PM
Waxing Crescent, 14% visible
METAR KSLN 232253Z 15019G28KT 10SM SCT070 33/15 A2987 RMK AO2 PK WND 14028/2245 SLP099 T03330150
Pressure 29.83 in
Visibility 10.0 miles
Clouds Scattered Clouds 7000 ft
Heat Index 91 °F
Dew Point 59 °F
Humidity 33%
Rainfall 0.00 in
Snow Depth Not available.
7:19 AM 7:25 PM
Waxing Crescent, 14% visible
METAR KSLN 232253Z 15019G28KT 10SM SCT070 33/15 A2987 RMK AO2 PK WND 14028/2245 SLP099 T03330150

Get Severe Weather Alerts

Thanks for signing up!

Be on the lookout for a verification email in your inbox.

You'll start receiving the daily forecast at 6 AM.

×

10-Day Weather Forecast

Almanac

Astronomy

Sep. 23, 2017 Rise Set
Actual Time
Civil Twilight
Nautical Twilight
Astronomical Twilight
Moon
Length of Visible Light
Length of Day
Tomorrow will be .
, % of the Moon is Illuminated

Today's Extremes

State Highs State Lows

Community

WunderPhotos

Category 6

Welcome to Category 6. This is the collective home for Weather Underground's featured writeups by Dr. Jeff Masters (right), Bob Henson (left), Chris Burt, and other regular contributors.

Nearby

Air Quality

  Air Quality AQ Index Pollutant
Not available.

Snow Depth

Station Depth Elevation

Earthquake Activity

City Distance Mag. Time & Date
Minimum magnitude displayed is 2.5.

Coastal Water Temperatures

Place Temperature

Stations

Nearby Weather Stations

Station Location Temp. Windchill Dew Point Humidity Wind Precip. Elev Updated Type
                   

Watches & Warnings

There are currently no watches in effect.